createdAt,value
2023-03-07T00:01:28.161Z,3.75
2023-03-07T00:03:56.598Z,3.92
2023-03-07T00:06:25.048Z,3.92
2023-03-07T00:08:55.204Z,3.97
2023-03-07T00:11:23.380Z,3.67
2023-03-07T00:13:51.713Z,3.67
2023-03-07T00:16:23.334Z,3.38
2023-03-07T00:18:52.985Z,3.40
2023-03-07T00:21:23.414Z,3.33
2023-03-07T00:23:54.153Z,3.33
2023-03-07T00:26:25.739Z,4.25
2023-03-07T00:28:55.863Z,3.40
2023-03-07T00:31:25.346Z,3.57
2023-03-07T00:33:54.882Z,3.80
2023-03-07T00:36:25.430Z,3.80
2023-03-07T00:38:54.619Z,3.13
2023-03-07T00:41:25.861Z,3.40
2023-03-07T00:43:55.592Z,3.60
2023-03-07T00:46:26.234Z,3.47
2023-03-07T00:48:56.292Z,3.70
2023-03-07T00:51:28.511Z,4.00
2023-03-07T00:53:56.698Z,3.38
2023-03-07T00:56:27.911Z,3.35
2023-03-07T00:58:56.206Z,3.35
2023-03-07T01:01:26.583Z,3.42
2023-03-07T01:03:56.892Z,3.13
2023-03-07T01:06:28.191Z,3.67
2023-03-07T01:09:00.259Z,3.45
2023-03-07T01:11:29.885Z,3.45
2023-03-07T01:13:59.678Z,3.60
2023-03-07T01:16:30.469Z,3.38
2023-03-07T01:19:04.052Z,3.28
2023-03-07T01:21:34.888Z,3.50
2023-03-07T01:24:03.698Z,3.40
2023-03-07T01:26:33.775Z,3.30
2023-03-07T01:29:04.714Z,3.67
2023-03-07T01:31:33.096Z,3.08
2023-03-07T01:34:03.455Z,3.28
2023-03-07T01:36:34.399Z,3.70
2023-03-07T01:39:06.607Z,2.88
2023-03-07T01:41:35.091Z,3.10
2023-03-07T01:44:06.284Z,3.15
2023-03-07T01:46:47.992Z,3.25
2023-03-07T01:49:30.434Z,3.15
2023-03-07T01:52:04.369Z,3.17
2023-03-07T01:54:34.378Z,2.80
2023-03-07T01:57:05.150Z,3.20
2023-03-07T01:59:38.310Z,3.10
2023-03-07T02:02:11.913Z,2.92
2023-03-07T02:04:49.297Z,3.00
2023-03-07T02:07:17.957Z,3.00
2023-03-07T02:09:49.121Z,2.92
2023-03-07T02:14:48.574Z,2.95
2023-03-07T02:17:17.759Z,3.40
2023-03-07T02:20:28.404Z,3.10
2023-03-07T02:22:57.642Z,3.45
2023-03-07T02:25:34.531Z,2.88
2023-03-07T02:28:05.196Z,3.10
2023-03-07T02:30:33.459Z,3.00
2023-03-07T02:33:01.650Z,2.90
2023-03-07T02:35:30.014Z,3.22
2023-03-07T02:38:02.803Z,3.00
2023-03-07T02:40:32.784Z,3.40
2023-03-07T02:43:09.549Z,3.13
2023-03-07T02:45:37.795Z,3.50
2023-03-07T02:48:07.426Z,3.22
2023-03-07T02:50:36.140Z,3.20
2023-03-07T02:53:04.415Z,3.03
2023-03-07T02:55:33.651Z,3.30
2023-03-07T02:58:02.333Z,3.10
2023-03-07T03:00:31.924Z,3.20
2023-03-07T03:03:00.198Z,3.05
2023-03-07T03:05:28.485Z,3.15
2023-03-07T03:07:56.728Z,2.80
2023-03-07T03:10:25.145Z,3.30
2023-03-07T03:12:53.316Z,3.20
2023-03-07T03:15:21.595Z,3.70
2023-03-07T03:17:54.328Z,3.45
2023-03-07T03:20:22.596Z,3.28
2023-03-07T03:22:53.247Z,3.47
2023-03-07T03:25:23.180Z,3.70
2023-03-07T03:27:51.417Z,3.50
2023-03-07T03:30:19.779Z,3.50
2023-03-07T03:32:48.175Z,4.10
2023-03-07T03:35:17.870Z,3.50
2023-03-07T03:37:46.058Z,3.60
2023-03-07T03:40:17.331Z,3.67
2023-03-07T03:42:46.960Z,3.90
2023-03-07T03:45:16.223Z,4.18
2023-03-07T03:47:44.420Z,3.60
2023-03-07T03:50:13.163Z,3.72
2023-03-07T03:52:45.162Z,3.85
2023-03-07T03:55:13.712Z,3.63
2023-03-07T03:57:41.909Z,3.90
2023-03-07T04:00:14.867Z,4.10
2023-03-07T04:02:43.286Z,3.88
2023-03-07T04:05:11.948Z,4.30
2023-03-07T04:07:40.163Z,4.18
2023-03-07T04:10:11.777Z,3.95
2023-03-07T04:12:40.039Z,4.78
2023-03-07T04:15:10.128Z,4.20
2023-03-07T04:17:38.424Z,4.28
2023-03-07T04:20:14.209Z,4.15
2023-03-07T04:22:42.342Z,3.60
2023-03-07T04:25:12.284Z,3.60
2023-03-07T04:27:40.554Z,4.00
2023-03-07T04:30:10.761Z,4.47
2023-03-07T04:32:39.443Z,4.73
2023-03-07T04:35:08.484Z,4.13
2023-03-07T04:37:36.687Z,4.05
2023-03-07T04:40:05.643Z,3.92
2023-03-07T04:42:35.226Z,4.25
2023-03-07T04:45:04.894Z,4.35
2023-03-07T04:47:33.232Z,4.50
2023-03-07T04:50:01.452Z,4.07
2023-03-07T04:52:29.663Z,4.32
2023-03-07T04:54:57.840Z,4.13
2023-03-07T04:57:26.258Z,4.47
2023-03-07T04:59:55.854Z,4.20
2023-03-07T05:02:24.118Z,4.00
2023-03-07T05:04:52.332Z,4.80
2023-03-07T05:07:20.742Z,3.80
2023-03-07T05:09:48.917Z,4.18
2023-03-07T05:12:17.188Z,3.72
2023-03-07T05:14:45.389Z,4.07
2023-03-07T05:17:15.450Z,4.10
2023-03-07T05:19:44.360Z,4.15
2023-03-07T05:22:12.628Z,4.45
2023-03-07T05:24:40.844Z,5.38
2023-03-07T05:27:09.063Z,4.88
2023-03-07T05:29:37.256Z,4.03
2023-03-07T05:32:06.293Z,4.60
2023-03-07T05:34:38.227Z,4.10
2023-03-07T05:37:06.588Z,3.65
2023-03-07T05:39:34.843Z,4.15
2023-03-07T05:42:03.081Z,4.15
2023-03-07T05:44:33.766Z,4.25
2023-03-07T05:47:02.519Z,4.75
2023-03-07T05:49:30.711Z,4.32
2023-03-07T05:52:00.280Z,4.53
2023-03-07T05:54:28.548Z,4.70
2023-03-07T05:56:56.719Z,4.25
2023-03-07T05:59:24.970Z,4.45
2023-03-07T06:01:53.264Z,5.07
2023-03-07T06:04:21.581Z,4.72
2023-03-07T06:06:49.836Z,4.28
2023-03-07T06:09:19.735Z,4.38
2023-03-07T06:11:47.945Z,4.47
2023-03-07T06:14:16.159Z,4.95
2023-03-07T06:16:44.414Z,4.25
2023-03-07T06:19:12.586Z,4.05
2023-03-07T06:21:40.911Z,4.68
2023-03-07T06:24:09.808Z,4.60
2023-03-07T06:26:39.964Z,4.03
2023-03-07T06:29:08.267Z,3.90
2023-03-07T06:31:36.469Z,4.28
2023-03-07T06:34:04.853Z,4.50
2023-03-07T06:36:33.091Z,4.47
2023-03-07T06:39:01.491Z,4.35
2023-03-07T06:41:29.842Z,4.25
2023-03-07T06:44:00.375Z,4.63
2023-03-07T06:46:28.566Z,4.35
2023-03-07T06:48:56.753Z,4.57
2023-03-07T06:51:25.009Z,4.80
2023-03-07T06:53:53.210Z,4.35
2023-03-07T06:56:21.428Z,4.10
2023-03-07T06:58:50.147Z,4.25
2023-03-07T07:01:21.847Z,3.85
2023-03-07T07:03:50.233Z,5.05
2023-03-07T07:06:18.472Z,4.97
2023-03-07T07:08:46.821Z,4.43
2023-03-07T07:11:15.198Z,4.25
2023-03-07T07:13:43.511Z,4.13
2023-03-07T07:16:12.445Z,4.70
2023-03-07T07:18:42.111Z,4.30
2023-03-07T07:21:10.401Z,4.75
2023-03-07T07:23:38.734Z,4.18
2023-03-07T07:26:07.133Z,4.22
2023-03-07T07:28:35.572Z,4.32
2023-03-07T07:31:04.425Z,4.60
2023-03-07T07:33:32.773Z,4.65
2023-03-07T07:36:02.475Z,4.40
2023-03-07T07:38:30.720Z,4.38
2023-03-07T07:40:59.104Z,4.18
2023-03-07T07:43:27.347Z,3.97
2023-03-07T07:45:55.877Z,4.30
2023-03-07T07:48:24.426Z,4.40
2023-03-07T07:50:52.641Z,4.57
2023-03-07T07:53:22.219Z,3.97
2023-03-07T07:55:50.775Z,4.53
2023-03-07T07:58:19.064Z,4.43
2023-03-07T08:00:47.403Z,4.35
2023-03-07T08:03:15.655Z,4.05
2023-03-07T08:05:45.785Z,3.90
2023-03-07T08:08:13.958Z,4.60
2023-03-07T08:10:44.278Z,4.10
2023-03-07T08:13:14.542Z,4.63
2023-03-07T08:15:43.687Z,4.60
2023-03-07T08:18:11.991Z,4.45
2023-03-07T08:20:41.325Z,3.42
2023-03-07T08:23:09.997Z,3.80
2023-03-07T08:25:38.868Z,3.45
2023-03-07T08:28:08.405Z,3.10
2023-03-07T08:30:38.212Z,3.13
2023-03-07T08:33:07.382Z,3.20
2023-03-07T08:35:35.649Z,3.22
2023-03-07T08:38:04.022Z,3.20
2023-03-07T08:40:32.685Z,3.10
2023-03-07T08:43:00.996Z,3.72
2023-03-07T08:45:30.913Z,3.40
2023-03-07T08:47:59.749Z,3.53
2023-03-07T08:50:29.625Z,3.40
2023-03-07T08:52:58.097Z,3.33
2023-03-07T08:55:26.446Z,3.47
2023-03-07T08:57:54.641Z,3.40
2023-03-07T09:00:23.854Z,3.70
2023-03-07T09:02:54.355Z,3.55
2023-03-07T09:05:22.529Z,3.22
2023-03-07T09:07:50.707Z,3.50
2023-03-07T09:10:20.892Z,3.45
2023-03-07T09:12:49.480Z,3.50
2023-03-07T09:15:17.939Z,3.28
2023-03-07T09:17:46.271Z,3.63
2023-03-07T09:20:17.494Z,3.75
2023-03-07T09:22:46.726Z,3.47
2023-03-07T09:25:15.805Z,3.75
2023-03-07T09:27:45.568Z,3.70
2023-03-07T09:30:15.355Z,4.03
2023-03-07T09:32:43.803Z,3.50
2023-03-07T09:35:12.125Z,4.03
2023-03-07T09:37:41.745Z,4.03
2023-03-07T09:40:17.668Z,3.47
2023-03-07T09:42:56.516Z,3.75
2023-03-07T09:45:42.285Z,3.72
2023-03-07T09:48:47.977Z,3.70
2023-03-07T09:51:21.410Z,4.07
2023-03-07T09:53:57.839Z,3.75
2023-03-07T09:56:32.449Z,3.75
2023-03-07T09:59:22.326Z,3.60
2023-03-07T10:01:54.235Z,3.80
2023-03-07T10:04:27.995Z,3.70
2023-03-07T10:06:59.588Z,4.05
2023-03-07T10:09:29.589Z,4.03
2023-03-07T10:12:22.877Z,3.60
2023-03-07T10:15:26.517Z,3.60
2023-03-07T10:18:14.462Z,3.90
2023-03-07T10:20:49.847Z,4.32
2023-03-07T10:23:42.449Z,3.58
2023-03-07T10:26:18.321Z,3.80
2023-03-07T10:28:47.873Z,3.58
2023-03-07T10:31:23.620Z,3.58
2023-03-07T10:33:53.760Z,4.03
2023-03-07T10:36:34.382Z,3.63
2023-03-07T10:39:08.261Z,3.83
2023-03-07T10:41:37.770Z,3.90
2023-03-07T10:44:06.144Z,3.70
2023-03-07T10:46:38.072Z,4.15
2023-03-07T10:49:15.847Z,3.58
2023-03-07T10:51:57.204Z,4.03
2023-03-07T10:54:31.580Z,3.55
2023-03-07T10:57:10.276Z,3.55
2023-03-07T10:59:40.919Z,3.85
2023-03-07T11:02:32.650Z,3.70
2023-03-07T11:05:01.533Z,4.10
2023-03-07T11:07:33.015Z,3.90
2023-03-07T11:10:03.443Z,3.80
2023-03-07T11:12:33.059Z,4.25
2023-03-07T11:15:12.728Z,4.10
2023-03-07T11:17:44.297Z,4.05
2023-03-07T11:20:23.274Z,4.07
2023-03-07T11:22:52.762Z,3.65
2023-03-07T11:25:25.852Z,3.80
2023-03-07T11:27:58.713Z,3.80
2023-03-07T11:30:29.885Z,3.78
2023-03-07T11:33:17.643Z,3.75
2023-03-07T11:35:59.849Z,3.85
2023-03-07T11:38:49.796Z,3.70
2023-03-07T11:41:25.305Z,4.05
2023-03-07T11:44:24.973Z,3.88
2023-03-07T11:47:18.465Z,3.95
2023-03-07T11:49:57.830Z,3.90
2023-03-07T11:52:52.150Z,4.30
2023-03-07T11:55:28.081Z,4.18
2023-03-07T11:58:15.505Z,3.75
2023-03-07T12:01:02.670Z,4.30
2023-03-07T12:03:54.927Z,4.32
2023-03-07T12:06:40.969Z,3.85
2023-03-07T12:09:33.025Z,4.40
2023-03-07T12:12:42.482Z,3.85
2023-03-07T12:15:28.991Z,3.90
2023-03-07T12:18:19.992Z,3.90
2023-03-07T12:21:02.520Z,4.38
2023-03-07T12:23:38.663Z,4.10
2023-03-07T12:26:13.493Z,4.55
2023-03-07T12:28:48.326Z,4.53
2023-03-07T12:31:21.264Z,4.60
2023-03-07T12:34:02.135Z,4.15
2023-03-07T12:36:36.451Z,4.70
2023-03-07T12:39:19.829Z,4.55
2023-03-07T12:41:58.623Z,4.38
2023-03-07T12:44:42.075Z,4.15
2023-03-07T12:47:18.338Z,4.25
2023-03-07T12:49:56.836Z,4.30
2023-03-07T12:52:40.192Z,4.28
2023-03-07T12:55:22.090Z,4.90
2023-03-07T12:57:59.278Z,4.43
2023-03-07T13:00:27.515Z,4.22
2023-03-07T13:03:06.619Z,4.72
2023-03-07T13:05:38.383Z,4.45
2023-03-07T13:08:09.121Z,4.32
2023-03-07T13:10:37.973Z,4.45
2023-03-07T13:13:58.510Z,4.10
2023-03-07T13:16:54.715Z,3.77
2023-03-07T13:19:54.000Z,4.63
2023-03-07T13:23:28.995Z,4.53
2023-03-07T13:26:12.298Z,4.10
2023-03-07T13:28:47.897Z,4.68
2023-03-07T13:31:46.194Z,4.45
2023-03-07T13:34:52.902Z,4.35
2023-03-07T13:37:56.702Z,4.25
2023-03-07T13:40:55.138Z,4.72
2023-03-07T13:44:04.047Z,4.40
2023-03-07T13:46:48.595Z,4.97
2023-03-07T13:49:46.196Z,4.60
2023-03-07T13:52:44.277Z,4.28
2023-03-07T13:55:33.895Z,4.53
2023-03-07T13:58:17.988Z,4.40
2023-03-07T14:00:55.802Z,4.47
2023-03-07T14:03:30.162Z,4.38
2023-03-07T14:06:04.675Z,4.78
2023-03-07T14:08:36.411Z,4.57
2023-03-07T14:11:06.941Z,4.50
2023-03-07T14:14:07.562Z,4.82
2023-03-07T14:16:53.146Z,5.10
2023-03-07T14:19:45.324Z,5.10
2023-03-07T14:22:26.802Z,3.92
2023-03-07T14:25:15.733Z,4.15
2023-03-07T14:27:57.826Z,4.32
2023-03-07T14:30:29.696Z,4.30
2023-03-07T14:33:00.646Z,3.97
2023-03-07T14:35:37.762Z,4.00
2023-03-07T14:38:09.981Z,4.07
2023-03-07T14:40:53.928Z,3.83
2023-03-07T14:43:37.612Z,4.22
2023-03-07T14:46:14.858Z,3.90
2023-03-07T14:49:08.812Z,3.92
2023-03-07T14:51:42.854Z,4.38
2023-03-07T14:54:18.780Z,4.20
2023-03-07T14:56:47.689Z,4.15
2023-03-07T14:59:27.973Z,4.10
2023-03-07T15:02:00.118Z,4.20
2023-03-07T15:04:32.091Z,3.90
2023-03-07T15:07:03.857Z,4.10
2023-03-07T15:09:34.306Z,4.13
2023-03-07T15:12:08.316Z,3.88
2023-03-07T15:14:44.386Z,4.07
2023-03-07T15:17:18.193Z,4.13
2023-03-07T15:19:51.002Z,4.75
2023-03-07T15:22:25.587Z,4.57
2023-03-07T15:24:54.235Z,4.25
2023-03-07T15:27:27.113Z,4.95
2023-03-07T15:29:56.614Z,4.25
2023-03-07T15:32:35.403Z,4.28
2023-03-07T15:35:16.715Z,4.50
2023-03-07T15:37:56.580Z,4.15
2023-03-07T15:40:30.440Z,4.38
2023-03-07T15:43:03.384Z,4.10
2023-03-07T15:45:35.198Z,4.35
2023-03-07T15:48:25.171Z,4.20
2023-03-07T15:50:58.218Z,3.70
2023-03-07T15:53:31.391Z,3.97
2023-03-07T15:56:03.369Z,4.28
2023-03-07T15:58:33.751Z,4.53
2023-03-07T16:01:19.427Z,4.20
2023-03-07T16:03:52.665Z,4.18
2023-03-07T16:06:41.538Z,4.47
2023-03-07T16:09:13.697Z,4.00
2023-03-07T16:11:42.704Z,4.05
2023-03-07T16:14:22.709Z,4.18
2023-03-07T16:16:51.603Z,4.18
2023-03-07T16:19:19.871Z,3.90
2023-03-07T16:21:49.716Z,4.18
2023-03-07T16:24:17.976Z,3.90
2023-03-07T16:26:47.816Z,4.90
2023-03-07T16:29:18.264Z,4.28
2023-03-07T16:31:47.086Z,4.10
2023-03-07T16:34:18.643Z,3.70
2023-03-07T16:36:47.464Z,3.70
2023-03-07T16:39:18.492Z,3.90
2023-03-07T16:44:18.413Z,4.03
2023-03-07T16:46:53.552Z,3.95
2023-03-07T16:49:23.018Z,3.78
2023-03-07T16:52:04.641Z,3.88
2023-03-07T16:54:35.541Z,4.18
2023-03-07T16:57:04.887Z,3.50
2023-03-07T16:59:36.257Z,3.67
2023-03-07T17:02:15.002Z,3.65
2023-03-07T17:04:44.422Z,3.60
2023-03-07T17:07:18.104Z,3.65
2023-03-07T17:09:47.849Z,4.60
2023-03-07T17:12:17.013Z,3.75
2023-03-07T17:14:45.988Z,4.00
2023-03-07T17:17:20.906Z,4.40
2023-03-07T17:19:49.318Z,3.90
2023-03-07T17:22:19.915Z,4.25
2023-03-07T17:24:49.905Z,4.07
2023-03-07T17:27:19.123Z,3.65
2023-03-07T17:29:50.310Z,3.83
2023-03-07T17:32:19.365Z,3.80
2023-03-07T17:34:47.851Z,3.72
2023-03-07T17:37:16.162Z,4.20
2023-03-07T17:39:45.769Z,3.85
2023-03-07T17:42:15.830Z,3.90
2023-03-07T17:44:44.191Z,4.10
2023-03-07T17:47:12.503Z,4.05
2023-03-07T17:49:40.753Z,3.88
2023-03-07T17:52:09.734Z,4.28
2023-03-07T17:54:38.931Z,4.10
2023-03-07T17:57:07.895Z,3.97
2023-03-07T17:59:38.165Z,4.03
2023-03-07T18:02:06.530Z,4.15
2023-03-07T18:04:34.804Z,4.10
2023-03-07T18:07:03.938Z,4.53
2023-03-07T18:09:32.228Z,4.05
2023-03-07T18:12:01.112Z,4.25
2023-03-07T18:14:29.687Z,3.85
2023-03-07T18:16:59.269Z,3.90
2023-03-07T18:19:27.562Z,4.10
2023-03-07T18:21:56.382Z,3.90
2023-03-07T18:24:27.297Z,4.10
2023-03-07T18:26:56.868Z,4.78
2023-03-07T18:29:26.427Z,4.40
2023-03-07T18:31:54.831Z,4.35
2023-03-07T18:34:25.036Z,4.13
2023-03-07T18:36:54.494Z,4.40
2023-03-07T18:39:23.935Z,4.28
2023-03-07T18:41:52.907Z,4.80
2023-03-07T18:44:21.283Z,4.28
2023-03-07T18:46:49.648Z,4.80
2023-03-07T18:49:17.953Z,4.50
2023-03-07T18:51:48.523Z,5.10
2023-03-07T18:54:17.019Z,5.75
2023-03-07T18:56:47.731Z,6.85
2023-03-07T18:59:17.287Z,4.93
2023-03-07T19:01:50.154Z,4.28
2023-03-07T19:04:19.497Z,4.22
2023-03-07T19:06:49.206Z,4.85
2023-03-07T19:09:20.208Z,4.97
2023-03-07T19:14:18.062Z,4.60
2023-03-07T19:16:46.684Z,4.60
2023-03-07T19:19:15.106Z,4.90
2023-03-07T19:21:43.521Z,4.97
2023-03-07T19:24:13.480Z,5.00
2023-03-07T19:26:43.311Z,5.18
2023-03-07T19:29:13.090Z,4.55
2023-03-07T19:31:43.777Z,5.55
2023-03-07T19:34:12.379Z,4.57
2023-03-07T19:36:41.588Z,4.32
2023-03-07T19:39:14.941Z,4.13
2023-03-07T19:41:47.959Z,4.63
2023-03-07T19:44:17.145Z,4.47
2023-03-07T19:46:47.209Z,4.28
2023-03-07T19:49:16.771Z,4.70
2023-03-07T19:51:45.190Z,4.60
2023-03-07T19:54:15.158Z,4.63
2023-03-07T19:56:45.748Z,4.90
2023-03-07T19:59:15.160Z,4.55
2023-03-07T20:01:45.982Z,4.63
2023-03-07T20:04:16.463Z,4.88
2023-03-07T20:06:45.818Z,4.95
2023-03-07T20:09:14.764Z,4.88
2023-03-07T20:11:45.205Z,4.78
2023-03-07T20:14:15.728Z,5.43
2023-03-07T20:16:44.360Z,5.10
2023-03-07T20:19:20.672Z,5.40
2023-03-07T20:21:50.028Z,5.32
2023-03-07T20:24:19.103Z,5.75
2023-03-07T20:26:49.028Z,5.03
2023-03-07T20:29:17.377Z,4.97
2023-03-07T20:31:45.837Z,4.95
2023-03-07T20:34:14.169Z,4.85
2023-03-07T20:36:44.355Z,4.95
2023-03-07T20:39:14.964Z,4.80
2023-03-07T20:41:44.421Z,4.72
2023-03-07T20:44:16.325Z,5.15
2023-03-07T20:46:44.901Z,4.68
2023-03-07T20:49:15.070Z,5.13
2023-03-07T20:51:44.455Z,5.00
2023-03-07T20:54:15.894Z,4.97
2023-03-07T20:56:46.439Z,4.63
2023-03-07T20:59:19.371Z,4.78
2023-03-07T21:01:48.883Z,5.38
2023-03-07T21:04:20.585Z,7.63
2023-03-07T21:06:50.307Z,5.25
2023-03-07T21:09:19.965Z,4.78
2023-03-07T21:11:50.402Z,4.45
2023-03-07T21:14:21.582Z,4.65
2023-03-07T21:16:50.014Z,4.70
2023-03-07T21:19:18.330Z,7.63
2023-03-07T21:21:46.696Z,9.10
2023-03-07T21:24:16.109Z,5.43
2023-03-07T21:26:44.677Z,4.97
2023-03-07T21:29:16.910Z,5.70
2023-03-07T21:31:46.620Z,4.88
2023-03-07T21:34:15.574Z,5.22
2023-03-07T21:36:47.915Z,5.38
2023-03-07T21:39:16.291Z,5.07
2023-03-07T21:41:44.494Z,4.75
2023-03-07T21:44:14.375Z,6.65
2023-03-07T21:46:42.651Z,5.13
2023-03-07T21:49:13.070Z,5.10
2023-03-07T21:51:41.321Z,4.60
2023-03-07T21:54:09.530Z,5.13
2023-03-07T21:56:37.849Z,4.95
2023-03-07T21:59:06.074Z,5.20
2023-03-07T22:01:34.410Z,4.53
2023-03-07T22:04:02.724Z,5.20
2023-03-07T22:06:32.348Z,5.03
2023-03-07T22:09:01.064Z,5.63
2023-03-07T22:11:29.364Z,4.95
2023-03-07T22:13:57.544Z,5.00
2023-03-07T22:16:25.895Z,4.90
2023-03-07T22:18:55.720Z,5.70
2023-03-07T22:21:26.045Z,4.68
2023-03-07T22:23:59.542Z,4.93
2023-03-07T22:26:29.185Z,4.93
2023-03-07T22:28:57.650Z,5.45
2023-03-07T22:31:27.047Z,4.60
2023-03-07T22:33:55.335Z,5.05
2023-03-07T22:36:23.657Z,5.30
2023-03-07T22:38:56.547Z,5.35
2023-03-07T22:41:26.248Z,5.25
2023-03-07T22:43:54.620Z,4.82
2023-03-07T22:46:23.313Z,5.07
2023-03-07T22:48:54.169Z,5.97
2023-03-07T22:51:24.364Z,5.20
2023-03-07T22:53:52.864Z,4.47
2023-03-07T22:56:25.494Z,4.65
2023-03-07T22:58:53.876Z,5.25
2023-03-07T23:01:25.493Z,4.88
2023-03-07T23:03:55.468Z,4.57
2023-03-07T23:06:25.759Z,4.75
2023-03-07T23:08:54.782Z,5.00
2023-03-07T23:11:26.034Z,4.88
2023-03-07T23:13:55.209Z,5.03
2023-03-07T23:16:26.126Z,5.13
2023-03-07T23:18:56.582Z,5.22
2023-03-07T23:21:28.884Z,4.88
2023-03-07T23:23:57.759Z,4.95
2023-03-07T23:26:29.723Z,4.85
2023-03-07T23:28:58.691Z,4.88
2023-03-07T23:31:29.153Z,5.28
2023-03-07T23:33:59.247Z,5.68
2023-03-07T23:36:30.304Z,4.80
2023-03-07T23:38:59.543Z,4.70
2023-03-07T23:41:29.182Z,5.07
2023-03-07T23:43:59.804Z,4.95
2023-03-07T23:46:29.216Z,5.35
2023-03-07T23:48:58.021Z,4.70
2023-03-07T23:51:26.681Z,4.93
2023-03-07T23:53:54.913Z,5.15
2023-03-07T23:56:23.368Z,4.72
2023-03-07T23:58:53.768Z,5.25
